Muammer Yagci — TCBK7 — position and weather

sailwx.info

Track history (hours):
 
Tides and Currents Weather Stations Pressure Air Temp Water Temp Dewpoint Dewpoint Depression Visibility Wind Speed Wind Dir Waves Ship Positions

Muammer Yagci

Last reported at 2018-Feb-24 12:10 UTC. Time now 2018-Feb-25 12:10 UTC.
Position N 35°58' W 005°30'.

Length 88 m; draft 4.5 m.

Type: Cargo ship. MMSI: 271002144.

Date/timePositionNaut miles runAvg speedWind from/ knotsBaromVisibWave heightAir tempDewpointWater temp
2018-Feb-24 12:10N 35°58' W 005°30'1 7.7
2018-Feb-24 12:00N 35°59' W 005°29'4 8.2
2018-Feb-24 11:30N 36°00' W 005°24'4 7.8
2018-Feb-24 11:00N 36°02' W 005°20'  
2018-Feb-20 21:17N 37°07' E 000°59'4 8.7
2018-Feb-20 20:50N 37°08' E 001°03'4 9.1
2018-Feb-20 20:23N 37°09' E 001°08'4 9.2
2018-Feb-20 19:58N 37°10' E 001°13'  
2018-Feb-17 21:24N 36°54' E 013°36'4 9.9
2018-Feb-17 21:00N 36°54' E 013°41'5 9.4
2018-Feb-17 20:30N 36°53' E 013°47'5 9.4
2018-Feb-17 20:00N 36°51' E 013°52'5 9.5
2018-Feb-17 19:31N 36°50' E 013°58'5 9.5
2018-Feb-17 19:01N 36°48' E 014°04'5 9.6
2018-Feb-17 18:30N 36°47' E 014°09'5 9.5
2018-Feb-17 18:00N 36°46' E 014°15'5 9.3
2018-Feb-17 17:30N 36°44' E 014°21'5 9.0
2018-Feb-17 17:00N 36°43' E 014°26'4 8.7
2018-Feb-17 16:30N 36°42' E 014°31'  
Track history (hours):
 
Tides and Currents Weather Stations Pressure Air Temp Water Temp Dewpoint Dewpoint Depression Visibility Wind Speed Wind Dir Waves Ship Positions

Muammer Yagci

Last reported at 2018-Feb-24 12:10 UTC. Time now 2018-Feb-25 12:10 UTC.
Position N 35°58' W 005°30'.

Length 88 m; draft 4.5 m.

Type: Cargo ship. MMSI: 271002144.

Date/timePositionNaut miles runAvg speedWind from/ knotsBaromVisibWave heightAir tempDewpointWater temp
2018-Feb-24 12:10N 35°58' W 005°30'1 7.7
2018-Feb-24 12:00N 35°59' W 005°29'4 8.2
2018-Feb-24 11:30N 36°00' W 005°24'4 7.8
2018-Feb-24 11:00N 36°02' W 005°20'  
2018-Feb-20 21:17N 37°07' E 000°59'4 8.7
2018-Feb-20 20:50N 37°08' E 001°03'4 9.1
2018-Feb-20 20:23N 37°09' E 001°08'4 9.2
2018-Feb-20 19:58N 37°10' E 001°13'  
2018-Feb-17 21:24N 36°54' E 013°36'4 9.9
2018-Feb-17 21:00N 36°54' E 013°41'5 9.4
2018-Feb-17 20:30N 36°53' E 013°47'5 9.4
2018-Feb-17 20:00N 36°51' E 013°52'5 9.5
2018-Feb-17 19:31N 36°50' E 013°58'5 9.5
2018-Feb-17 19:01N 36°48' E 014°04'5 9.6
2018-Feb-17 18:30N 36°47' E 014°09'5 9.5
2018-Feb-17 18:00N 36°46' E 014°15'5 9.3
2018-Feb-17 17:30N 36°44' E 014°21'5 9.0
2018-Feb-17 17:00N 36°43' E 014°26'4 8.7
2018-Feb-17 16:30N 36°42' E 014°31'  

Dump ship's entire track history